Time;durP1;ratioP1;P1;durP2;ratioP2;P2;SDS_P1;SDS_P2;PMS_P1;PMS_P2;Temp;Humidity;BMP_temperature;BMP_pressure;BME280_temperature;BME280_humidity;BME280_pressure;Samples;Min_cycle;Max_cycle;Signal;HPM_P1;HPM_P2
2024/02/08 00:01:53;;;;;;;6.70;4.60;;;6.90;83.20;;;;;;5033491;28;20036;-88
2024/02/08 00:04:18;;;;;;;7.40;4.70;;;6.80;83.80;;;;;;5023495;28;20037;-88
2024/02/08 00:06:44;;;;;;;6.22;4.35;;;6.80;83.20;;;;;;5031659;28;20358;-79
2024/02/08 00:09:10;;;;;;;7.07;3.90;;;6.80;83.20;;;;;;5035925;28;20125;-84
2024/02/08 00:11:36;;;;;;;6.25;3.97;;;6.80;83.20;;;;;;5033736;28;20042;-85
2024/02/08 00:14:01;;;;;;;6.13;4.55;;;6.80;83.20;;;;;;5034692;28;20013;-88
2024/02/08 00:16:27;;;;;;;7.03;4.38;;;6.80;83.20;;;;;;5017115;28;20034;-87
2024/02/08 00:18:56;;;;;;;7.07;4.13;;;6.70;83.20;;;;;;5016646;28;20036;-79
2024/02/08 00:21:21;;;;;;;5.55;3.92;;;6.80;83.20;;;;;;5016312;28;20359;-79
2024/02/08 00:23:47;;;;;;;7.40;4.60;;;6.80;83.30;;;;;;5014152;28;20488;-79
2024/02/08 00:26:16;;;;;;;6.45;4.30;;;6.70;83.20;;;;;;5015706;28;20029;-79
2024/02/08 00:28:41;;;;;;;6.47;4.13;;;6.70;83.20;;;;;;5023322;28;20042;-84
2024/02/08 00:31:07;;;;;;;7.72;4.50;;;6.70;83.80;;;;;;5032120;28;20462;-87
2024/02/08 00:33:37;;;;;;;7.00;4.40;;;6.70;83.20;;;;;;5030178;28;20049;-90
2024/02/08 00:36:03;;;;;;;8.70;4.85;;;6.70;83.20;;;;;;5032082;28;20104;-88
2024/02/08 00:38:29;;;;;;;5.70;3.92;;;6.70;83.20;;;;;;5025738;28;20120;-90
2024/02/08 00:40:58;;;;;;;5.85;4.07;;;6.70;83.20;;;;;;5016021;28;20228;-84
2024/02/08 00:43:24;;;;;;;5.03;4.20;;;6.60;83.20;;;;;;5019679;28;20025;-90
2024/02/08 00:45:50;;;;;;;7.38;4.35;;;6.60;83.10;;;;;;5011826;28;20029;-79
2024/02/08 00:48:16;;;;;;;6.10;4.03;;;6.60;83.20;;;;;;5016778;28;20044;-79
2024/02/08 00:50:41;;;;;;;6.28;4.07;;;6.60;83.20;;;;;;5029862;28;20025;-79
2024/02/08 00:53:07;;;;;;;6.65;4.85;;;6.60;83.20;;;;;;5016617;28;20029;-83
2024/02/08 00:55:35;;;;;;;5.57;4.25;;;6.60;83.20;;;;;;5032697;28;20101;-91
2024/02/08 00:58:02;;;;;;;5.85;4.05;;;6.60;83.20;;;;;;5033465;28;20029;-90
2024/02/08 01:00:28;;;;;;;6.88;4.32;;;6.60;83.20;;;;;;5031892;28;20401;-84
2024/02/08 01:02:58;;;;;;;6.45;4.72;;;6.60;83.20;;;;;;5014505;28;20030;-79
2024/02/08 01:05:24;;;;;;;7.03;4.72;;;6.60;83.20;;;;;;5015895;28;20030;-85
2024/02/08 01:07:51;;;;;;;6.97;4.72;;;6.50;83.20;;;;;;5017199;28;20119;-86
2024/02/08 01:10:17;;;;;;;6.45;4.13;;;6.60;83.20;;;;;;5031308;28;20128;-84
2024/02/08 01:12:43;;;;;;;6.65;4.70;;;6.50;83.20;;;;;;5016497;28;20120;-84
2024/02/08 01:15:14;;;;;;;6.32;4.28;;;6.50;83.20;;;;;;5048125;28;20029;-87
2024/02/08 01:17:41;;;;;;;6.75;4.35;;;6.50;83.20;;;;;;5016371;28;20025;-84
2024/02/08 01:20:07;;;;;;;7.28;4.70;;;6.50;83.20;;;;;;5011886;28;20014;-86
2024/02/08 01:22:33;;;;;;;6.50;4.20;;;6.50;83.20;;;;;;5031861;28;20474;-87
2024/02/08 01:24:59;;;;;;;7.20;4.68;;;6.50;83.20;;;;;;5032739;28;20045;-87
2024/02/08 01:27:25;;;;;;;7.18;4.47;;;6.50;83.20;;;;;;5031591;28;20481;-84
2024/02/08 01:29:53;;;;;;;6.68;4.35;;;6.50;83.20;;;;;;5030162;28;20017;-87
2024/02/08 01:32:20;;;;;;;6.78;4.00;;;6.50;83.20;;;;;;5026952;28;20033;-83
2024/02/08 01:34:46;;;;;;;6.53;4.00;;;6.50;83.20;;;;;;5030257;28;20075;-88
2024/02/08 01:37:13;;;;;;;7.10;4.30;;;6.50;83.20;;;;;;5027650;28;20232;-84
2024/02/08 01:39:40;;;;;;;7.10;3.85;;;6.50;83.20;;;;;;5032044;28;20053;-80
2024/02/08 01:42:13;;;;;;;6.65;4.30;;;6.50;83.20;;;;;;5026184;28;20022;-81
2024/02/08 01:45:03;;;;;;;6.50;4.28;;;6.40;83.20;;;;;;5008485;28;20071;-79
2024/02/08 01:47:29;;;;;;;5.85;3.80;;;6.40;83.30;;;;;;5030031;28;20038;-80
2024/02/08 01:49:56;;;;;;;5.97;3.85;;;6.40;83.20;;;;;;5013362;28;20032;-91
2024/02/08 01:52:22;;;;;;;5.18;3.53;;;6.40;83.20;;;;;;5032497;28;20049;-90
2024/02/08 01:54:49;;;;;;;6.13;4.20;;;6.40;83.20;;;;;;5013718;28;20025;-90
2024/02/08 01:57:15;;;;;;;5.50;3.95;;;6.40;83.20;;;;;;5031099;28;20035;-90
2024/02/08 01:59:47;;;;;;;5.30;3.30;;;6.40;83.20;;;;;;5046371;28;20124;-84
2024/02/08 02:02:14;;;;;;;5.32;3.70;;;6.40;83.20;;;;;;5024037;28;20076;-89
2024/02/08 02:04:40;;;;;;;5.32;3.40;;;6.40;83.20;;;;;;5031276;28;20463;-87
2024/02/08 02:07:06;;;;;;;6.15;3.80;;;6.30;83.20;;;;;;5014308;28;20093;-90
2024/02/08 02:09:32;;;;;;;4.80;3.58;;;6.40;83.20;;;;;;5013227;28;20025;-84
2024/02/08 02:12:09;;;;;;;5.43;3.78;;;6.40;83.20;;;;;;5047711;28;20047;-91
2024/02/08 02:14:38;;;;;;;5.78;3.65;;;6.30;83.20;;;;;;5025520;28;20433;-91
2024/02/08 02:17:16;;;;;;;5.93;3.60;;;6.30;83.20;;;;;;5014201;28;20030;-87
2024/02/08 02:19:42;;;;;;;5.57;3.35;;;6.30;83.30;;;;;;5007231;28;20055;-90
2024/02/08 02:22:10;;;;;;;5.50;3.50;;;6.30;83.20;;;;;;5036532;28;20029;-84
2024/02/08 02:24:40;;;;;;;5.57;3.88;;;6.30;83.20;;;;;;5034173;28;20117;-85
2024/02/08 02:27:07;;;;;;;5.55;3.65;;;6.30;83.20;;;;;;5023569;28;20033;-79
2024/02/08 02:29:38;;;;;;;5.57;3.42;;;6.30;83.20;;;;;;5028294;28;20049;-84
2024/02/08 02:32:11;;;;;;;4.95;3.45;;;6.30;83.20;;;;;;5037472;28;20033;-90
2024/02/08 02:34:38;;;;;;;6.68;3.88;;;6.30;83.30;;;;;;5043056;28;20401;-91
2024/02/08 02:37:04;;;;;;;5.47;3.67;;;6.30;83.20;;;;;;5030263;28;20025;-91
2024/02/08 02:39:31;;;;;;;5.55;3.67;;;6.30;83.20;;;;;;5028163;28;20108;-87
2024/02/08 02:42:00;;;;;;;6.47;3.80;;;6.30;83.20;;;;;;5027229;28;20385;-79
2024/02/08 02:44:29;;;;;;;5.72;3.70;;;6.30;83.30;;;;;;5038065;28;20064;-87
2024/02/08 02:47:03;;;;;;;5.45;3.83;;;6.30;83.20;;;;;;5029668;28;20068;-90
2024/02/08 02:49:29;;;;;;;7.33;4.40;;;6.20;83.20;;;;;;5012467;28;20076;-79
2024/02/08 02:51:59;;;;;;;5.25;3.63;;;6.20;83.20;;;;;;5013787;28;20420;-88
2024/02/08 02:54:30;;;;;;;5.22;3.45;;;6.20;83.20;;;;;;5025092;28;20030;-84
2024/02/08 02:56:56;;;;;;;6.10;3.70;;;6.20;83.20;;;;;;5059069;28;20108;-84
2024/02/08 02:59:26;;;;;;;5.72;3.72;;;6.20;83.20;;;;;;5044770;28;20126;-84
2024/02/08 03:01:55;;;;;;;5.55;3.55;;;6.20;83.30;;;;;;5028519;28;20030;-79
2024/02/08 03:04:22;;;;;;;5.28;3.60;;;6.20;83.20;;;;;;5012459;28;20021;-79
2024/02/08 03:06:52;;;;;;;5.20;3.70;;;6.20;83.20;;;;;;5023673;28;20037;-84
2024/02/08 03:09:27;;;;;;;5.88;3.78;;;6.20;83.20;;;;;;5011548;28;20026;-84
2024/02/08 03:11:53;;;;;;;5.30;3.60;;;6.20;83.20;;;;;;5011628;28;20116;-87
2024/02/08 03:14:22;;;;;;;6.00;3.88;;;6.20;83.20;;;;;;5025261;28;20022;-91
2024/02/08 03:16:48;;;;;;;5.80;3.92;;;6.20;83.80;;;;;;5012760;28;20025;-80
2024/02/08 03:19:15;;;;;;;6.50;3.67;;;6.20;83.20;;;;;;5025834;28;20021;-79
2024/02/08 03:21:41;;;;;;;4.45;3.15;;;6.20;83.30;;;;;;5027589;28;20048;-87
2024/02/08 03:24:09;;;;;;;5.03;3.47;;;6.20;83.30;;;;;;5029634;28;20021;-91
2024/02/08 03:26:46;;;;;;;5.80;3.92;;;6.20;83.20;;;;;;5030830;28;20609;-79
2024/02/08 03:29:13;;;;;;;4.57;3.08;;;6.20;83.20;;;;;;5007060;28;20041;-93
2024/02/08 03:31:47;;;;;;;5.22;3.33;;;6.20;83.20;;;;;;5012636;28;20022;-84
2024/02/08 03:34:23;;;;;;;4.88;3.38;;;6.20;83.30;;;;;;5027903;28;20501;-85
2024/02/08 03:36:52;;;;;;;6.00;3.42;;;6.20;83.30;;;;;;5043002;28;20072;-91
2024/02/08 03:39:26;;;;;;;5.70;4.03;;;6.20;83.30;;;;;;5013027;28;20022;-84
2024/02/08 03:42:01;;;;;;;4.82;3.45;;;6.20;83.20;;;;;;5015518;28;20028;-86
2024/02/08 03:44:30;;;;;;;4.47;3.17;;;6.20;83.20;;;;;;5013178;28;20034;-85
2024/02/08 03:47:04;;;;;;;4.82;3.28;;;6.20;83.20;;;;;;5045495;28;20086;-92
2024/02/08 03:49:49;;;;;;;4.70;3.17;;;6.20;83.20;;;;;;5039593;28;20025;-79
2024/02/08 03:52:17;;;;;;;5.30;3.35;;;6.20;83.40;;;;;;5024170;28;20022;-80
2024/02/08 03:54:45;;;;;;;5.53;3.63;;;6.10;83.20;;;;;;5010847;28;20083;-79
2024/02/08 03:57:13;;;;;;;4.60;3.42;;;6.20;83.20;;;;;;5029651;28;20021;-87
2024/02/08 03:59:42;;;;;;;4.88;3.15;;;6.10;83.20;;;;;;5006370;28;20022;-92
2024/02/08 04:02:09;;;;;;;6.10;3.50;;;6.20;83.20;;;;;;5028332;28;20036;-80
2024/02/08 04:04:47;;;;;;;5.90;3.40;;;6.20;83.30;;;;;;5013437;28;20067;-78
2024/02/08 04:07:34;;;;;;;4.88;3.33;;;6.10;83.20;;;;;;5028598;28;20103;-87
2024/02/08 04:10:18;;;;;;;4.13;3.03;;;6.20;83.30;;;;;;5044331;28;20052;-79
2024/02/08 04:53:57;;;;;;;4.57;3.05;;;6.10;83.30;;;;;;5026386;28;20318;-91
2024/02/08 04:56:24;;;;;;;3.75;3.00;;;6.10;83.20;;;;;;5014715;28;20025;-88
2024/02/08 04:58:50;;;;;;;4.07;2.97;;;6.10;83.30;;;;;;5016012;28;20117;-80
2024/02/08 05:01:17;;;;;;;4.50;3.28;;;6.10;83.30;;;;;;5016295;28;20030;-88
2024/02/08 05:03:43;;;;;;;5.72;3.35;;;6.10;83.30;;;;;;5031566;28;20087;-84
2024/02/08 05:06:11;;;;;;;5.40;3.70;;;6.10;83.30;;;;;;5032560;28;20024;-84
2024/02/08 05:08:41;;;;;;;5.35;3.38;;;6.10;83.30;;;;;;5049024;28;20025;-88
2024/02/08 05:11:09;;;;;;;4.30;2.65;;;6.10;83.30;;;;;;5046191;28;20053;-85
2024/02/08 05:13:51;;;;;;;3.67;2.65;;;6.10;83.30;;;;;;5015547;28;20149;-93
2024/02/08 05:16:18;;;;;;;4.05;3.08;;;6.10;83.40;;;;;;5041957;28;20060;-92
2024/02/08 05:18:45;;;;;;;4.05;2.72;;;6.10;83.40;;;;;;5026442;28;20116;-93
2024/02/08 05:21:15;;;;;;;4.68;3.00;;;6.10;83.30;;;;;;5017062;28;20030;-79
2024/02/08 05:23:42;;;;;;;3.33;2.65;;;6.10;83.40;;;;;;5016564;28;20025;-85
2024/02/08 05:26:18;;;;;;;5.00;2.83;;;6.10;83.30;;;;;;5032243;28;20109;-92
2024/02/08 05:28:48;;;;;;;3.85;2.78;;;6.10;83.40;;;;;;5014983;28;20045;-84
2024/02/08 05:31:18;;;;;;;5.43;3.10;;;6.10;83.30;;;;;;5031159;28;20337;-79
2024/02/08 05:33:44;;;;;;;3.50;2.50;;;6.10;83.30;;;;;;5011797;28;20030;-79
2024/02/08 05:36:17;;;;;;;3.20;2.55;;;6.10;83.30;;;;;;5011076;28;20025;-87
2024/02/08 05:38:45;;;;;;;4.45;2.90;;;6.10;83.40;;;;;;5031880;28;20026;-79
2024/02/08 05:41:15;;;;;;;3.65;2.50;;;6.10;83.30;;;;;;5012524;28;20049;-92
2024/02/08 05:43:44;;;;;;;3.58;2.50;;;6.10;83.40;;;;;;5017420;28;20030;-90
2024/02/08 05:46:24;;;;;;;4.32;3.05;;;6.10;83.40;;;;;;5023552;28;20021;-90
2024/02/08 05:49:03;;;;;;;4.00;2.88;;;6.10;83.40;;;;;;5015204;28;20402;-88
2024/02/08 05:51:33;;;;;;;3.42;2.63;;;6.10;83.30;;;;;;5032047;28;20133;-85
2024/02/08 05:54:02;;;;;;;4.13;2.50;;;6.10;83.30;;;;;;5010783;28;20032;-80
2024/02/08 05:56:30;;;;;;;4.90;3.03;;;6.10;83.30;;;;;;5014636;28;20021;-80
2024/02/08 05:59:01;;;;;;;3.97;2.65;;;6.10;83.40;;;;;;5030775;28;20028;-89
2024/02/08 06:01:31;;;;;;;4.68;2.85;;;6.10;83.40;;;;;;5038647;28;20052;-91
2024/02/08 06:04:02;;;;;;;3.95;2.92;;;6.10;83.30;;;;;;5031342;28;20026;-86
2024/02/08 06:06:48;;;;;;;4.40;2.90;;;6.10;83.40;;;;;;5016734;28;20036;-80
2024/02/08 06:09:37;;;;;;;4.07;2.70;;;6.10;83.40;;;;;;5010724;28;20129;-80
2024/02/08 06:12:08;;;;;;;3.45;2.72;;;6.10;83.40;;;;;;5026467;28;20044;-80
2024/02/08 06:14:38;;;;;;;5.03;3.03;;;6.10;83.30;;;;;;5031072;28;20028;-91
2024/02/08 06:17:07;;;;;;;4.22;2.78;;;6.00;83.30;;;;;;5011642;28;20036;-80
2024/02/08 06:19:39;;;;;;;3.92;2.88;;;6.10;83.40;;;;;;5026794;28;20025;-94
2024/02/08 06:22:20;;;;;;;4.57;2.80;;;6.10;83.40;;;;;;5021124;28;20037;-85
2024/02/08 06:25:08;;;;;;;3.60;2.70;;;6.10;83.40;;;;;;5028333;28;20021;-93
2024/02/08 06:27:37;;;;;;;5.60;3.05;;;6.10;83.40;;;;;;5048804;28;20047;-91
2024/02/08 06:30:18;;;;;;;4.28;2.80;;;6.10;83.30;;;;;;5013941;28;20461;-85
2024/02/08 06:32:49;;;;;;;4.15;3.17;;;6.10;83.30;;;;;;5027209;28;20025;-84
2024/02/08 06:35:25;;;;;;;4.28;2.75;;;6.10;83.30;;;;;;5031764;28;20221;-84
2024/02/08 06:38:00;;;;;;;3.90;2.88;;;6.10;83.30;;;;;;5014745;28;20044;-93
2024/02/08 07:37:54;;;;;;;5.72;3.58;;;6.00;83.30;;;;;;5042656;28;20281;-88
2024/02/08 07:42:52;;;;;;;5.60;3.45;;;6.00;83.30;;;;;;5046736;28;20037;-88
2024/02/08 07:45:29;;;;;;;4.50;3.50;;;6.10;83.40;;;;;;5027139;28;20022;-88
2024/02/08 07:47:58;;;;;;;5.30;3.63;;;6.10;83.40;;;;;;5031279;28;20102;-85
2024/02/08 07:50:35;;;;;;;4.72;3.67;;;6.10;83.40;;;;;;5036860;28;20055;-84
2024/02/08 07:53:08;;;;;;;4.80;3.65;;;6.10;83.40;;;;;;5029564;28;20029;-85
2024/02/08 07:58:07;;;;;;;5.80;3.95;;;6.10;83.90;;;;;;5045357;28;20037;-87
2024/02/08 08:03:07;;;;;;;5.40;3.90;;;6.10;83.40;;;;;;5042788;28;20036;-85
2024/02/08 08:05:42;;;;;;;5.32;3.72;;;6.10;83.30;;;;;;5035786;28;20044;-87
2024/02/08 08:11:02;;;;;;;5.25;4.07;;;6.10;83.30;;;;;;5048397;28;20133;-80
2024/02/08 08:14:06;;;;;;;6.45;3.92;;;6.10;83.30;;;;;;5021672;28;20037;-87
2024/02/08 08:19:07;;;;;;;6.88;3.83;;;6.10;83.30;;;;;;5034511;28;20061;-84
2024/02/08 08:24:26;;;;;;;5.38;3.60;;;6.10;83.30;;;;;;5050036;28;20032;-84
2024/02/08 08:29:47;;;;;;;5.68;4.10;;;6.10;83.40;;;;;;5032171;28;20494;-85
2024/02/08 08:37:44;;;;;;;6.15;4.07;;;6.20;83.30;;;;;;5049488;28;20044;-85
2024/02/08 08:40:20;;;;;;;5.70;4.15;;;6.20;83.30;;;;;;5027880;28;20036;-90
2024/02/08 08:42:50;;;;;;;5.72;3.90;;;6.20;83.40;;;;;;5032877;28;20605;-88
2024/02/08 08:45:19;;;;;;;5.63;3.90;;;6.20;83.30;;;;;;5016207;28;20025;-88
2024/02/08 08:48:00;;;;;;;5.20;3.95;;;6.20;83.30;;;;;;5033360;28;20037;-88
2024/02/08 08:50:31;;;;;;;6.35;3.75;;;6.20;83.30;;;;;;5031312;28;20022;-79
2024/02/08 08:53:07;;;;;;;5.55;3.92;;;6.20;83.30;;;;;;5039076;28;20048;-84
2024/02/08 08:55:39;;;;;;;6.22;4.40;;;6.20;83.30;;;;;;5025506;28;20026;-79
2024/02/08 08:58:12;;;;;;;6.10;4.38;;;6.20;83.30;;;;;;5049544;28;20025;-88
2024/02/08 09:00:46;;;;;;;7.35;4.40;;;6.30;83.30;;;;;;5014625;28;20377;-89
2024/02/08 09:03:38;;;;;;;6.20;4.25;;;6.30;83.30;;;;;;5032189;28;20463;-87
2024/02/08 09:06:02;;;;;;;6.63;4.53;;;6.30;83.30;;;;;;5027674;28;20057;-79
2024/02/08 09:08:42;;;;;;;4.82;4.10;;;6.30;83.20;;;;;;5012572;28;20033;-89
2024/02/08 09:11:12;;;;;;;5.93;4.07;;;6.30;83.30;;;;;;5013288;28;20099;-87
2024/02/08 09:13:42;;;;;;;5.93;3.67;;;6.30;83.30;;;;;;5013040;28;20021;-87
2024/02/08 09:21:32;;;;;;;4.43;3.58;;;6.40;83.30;;;;;;5042574;28;20098;-88
2024/02/08 09:24:17;;;;;;;5.90;4.10;;;6.40;83.40;;;;;;5049028;28;20448;-87
2024/02/08 09:26:52;;;;;;;6.50;3.67;;;6.40;83.40;;;;;;5025369;28;20091;-84
2024/02/08 09:29:24;;;;;;;4.72;3.65;;;6.40;83.30;;;;;;5048866;28;20083;-85
2024/02/08 09:31:56;;;;;;;5.20;3.47;;;6.40;83.30;;;;;;5016300;28;20033;-79
2024/02/08 09:34:31;;;;;;;5.75;4.00;;;6.40;83.30;;;;;;5026957;28;20017;-90
2024/02/08 09:36:57;;;;;;;6.15;4.20;;;6.40;83.30;;;;;;5035989;28;20049;-85
2024/02/08 09:39:48;;;;;;;5.80;4.13;;;6.40;83.20;;;;;;5015682;28;20052;-87
2024/02/08 09:42:09;;;;;;;6.10;3.90;;;6.40;83.30;;;;;;5031355;28;20389;-88
2024/02/08 09:44:36;;;;;;;5.53;3.85;;;6.50;83.30;;;;;;5012032;28;20033;-78
2024/02/08 09:47:06;;;;;;;5.85;4.07;;;6.50;83.30;;;;;;5015055;28;20145;-79
2024/02/08 09:49:38;;;;;;;6.85;4.15;;;6.50;83.30;;;;;;5031968;28;20116;-90
2024/02/08 09:52:16;;;;;;;6.70;3.97;;;6.50;83.30;;;;;;5040069;28;20088;-90
2024/02/08 09:54:46;;;;;;;5.22;3.80;;;6.50;83.30;;;;;;5015478;28;20036;-88
2024/02/08 09:57:22;;;;;;;5.47;4.00;;;6.50;83.30;;;;;;5027665;28;20056;-85
2024/02/08 10:00:34;;;;;;;6.20;4.07;;;6.60;83.40;;;;;;5015561;28;20116;-79
2024/02/08 10:03:03;;;;;;;7.00;3.85;;;6.60;83.30;;;;;;5036258;28;20042;-85
2024/02/08 10:08:28;;;;;;;5.30;3.90;;;6.60;83.30;;;;;;5029577;28;20025;-79
2024/02/08 10:11:11;;;;;;;6.13;3.53;;;6.60;83.30;;;;;;5030055;28;20053;-91
2024/02/08 10:16:30;;;;;;;5.30;3.60;;;6.60;83.30;;;;;;5026504;28;20073;-90
2024/02/08 10:19:03;;;;;;;4.57;3.47;;;6.60;83.90;;;;;;5015310;28;20463;-90
2024/02/08 10:21:35;;;;;;;;;;;6.60;83.30;;;;;;5032379;28;20037;-89
2024/02/08 10:24:13;;;;;;;5.88;3.65;;;6.60;83.20;;;;;;5014933;28;20396;-89
2024/02/08 10:26:39;;;;;;;5.03;3.55;;;6.70;83.20;;;;;;5031425;28;20025;-91
2024/02/08 10:29:07;;;;;;;7.20;3.55;;;6.70;83.30;;;;;;5013436;28;20029;-79
2024/02/08 10:31:37;;;;;;;4.68;3.72;;;6.70;83.30;;;;;;5015454;28;20076;-91
2024/02/08 10:34:09;;;;;;;5.85;3.80;;;6.70;83.30;;;;;;5015411;28;20029;-91
2024/02/08 10:36:44;;;;;;;5.93;4.00;;;6.70;83.30;;;;;;5030369;28;20112;-91
2024/02/08 10:39:26;;;;;;;7.10;4.07;;;6.70;83.40;;;;;;5014844;28;20037;-85
2024/02/08 10:41:58;;;;;;;5.35;3.92;;;6.70;83.30;;;;;;5015664;28;20049;-84
2024/02/08 10:44:28;;;;;;;6.75;4.18;;;6.80;83.40;;;;;;5013225;28;20505;-89
2024/02/08 10:47:09;;;;;;;5.22;3.90;;;6.80;83.40;;;;;;5047200;28;20025;-90
2024/02/08 10:49:44;;;;;;;7.18;4.22;;;6.80;83.40;;;;;;5040330;28;20120;-79
2024/02/08 10:52:19;;;;;;;6.28;3.92;;;6.80;83.30;;;;;;5014293;28;20049;-80
2024/02/08 10:54:56;;;;;;;;;;;6.80;83.40;;;;;;5015360;28;20397;-90
2024/02/08 10:58:01;;;;;;;5.22;3.60;;;6.80;83.20;;;;;;5031193;28;19913;-86
2024/02/08 11:03:08;;;;;;;5.72;4.13;;;6.90;83.20;;;;;;5009488;28;20033;-93
2024/02/08 11:08:33;;;;;;;5.13;3.75;;;6.90;83.30;;;;;;5006099;28;20353;-85
2024/02/08 11:11:09;;;;;;;5.30;3.80;;;6.90;83.30;;;;;;4999972;28;20117;-79
2024/02/08 11:13:39;;;;;;;5.82;3.65;;;6.90;83.40;;;;;;4985641;28;20236;-80
2024/02/08 11:16:33;;;;;;;4.95;3.60;;;6.90;83.40;;;;;;5025301;28;20034;-85
2024/02/08 11:19:04;;;;;;;5.78;3.60;;;7.00;83.40;;;;;;4997019;28;20086;-91
2024/02/08 11:21:45;;;;;;;6.63;4.30;;;7.00;83.30;;;;;;4997993;28;20029;-90
2024/02/08 11:24:27;;;;;;;6.18;4.00;;;7.00;83.40;;;;;;4993263;28;20026;-80
2024/02/08 11:27:06;;;;;;;7.10;3.97;;;7.00;83.40;;;;;;4995044;28;20041;-87
2024/02/08 11:29:42;;;;;;;5.60;3.78;;;7.00;83.40;;;;;;4996134;28;20061;-89
2024/02/08 11:32:17;;;;;;;6.13;4.07;;;7.10;83.40;;;;;;5008343;28;20034;-88
2024/02/08 11:34:45;;;;;;;5.95;4.10;;;7.10;83.40;;;;;;5014613;28;20481;-84
2024/02/08 11:37:18;;;;;;;5.95;4.20;;;7.10;83.40;;;;;;5031789;28;20013;-85
2024/02/08 11:39:46;;;;;;;6.50;4.38;;;7.10;83.40;;;;;;5032718;28;20025;-88
2024/02/08 11:42:17;;;;;;;6.20;4.00;;;7.10;83.40;;;;;;5016219;28;20409;-85
2024/02/08 11:45:00;;;;;;;6.15;3.85;;;7.10;83.40;;;;;;5034856;28;20432;-85
2024/02/08 11:47:26;;;;;;;6.38;4.00;;;7.10;83.40;;;;;;5034772;28;20029;-87
2024/02/08 11:50:23;;;;;;;5.30;3.65;;;7.10;83.40;;;;;;5012188;28;20343;-85
2024/02/08 11:52:57;;;;;;;5.50;3.70;;;7.10;83.50;;;;;;5016927;28;20484;-84
2024/02/08 11:55:23;;;;;;;5.50;3.83;;;7.10;83.40;;;;;;5027492;28;20056;-87
2024/02/08 11:57:53;;;;;;;7.63;4.25;;;7.10;83.30;;;;;;4999175;28;20049;-79
2024/02/08 12:00:20;;;;;;;6.72;4.20;;;7.20;83.40;;;;;;5011962;28;20026;-87
2024/02/08 12:02:58;;;;;;;6.20;3.63;;;7.20;83.40;;;;;;5028383;28;20059;-89
2024/02/08 12:05:28;;;;;;;5.45;3.75;;;7.20;83.40;;;;;;5016657;28;20489;-88
2024/02/08 12:08:08;;;;;;;6.05;3.88;;;7.20;83.40;;;;;;5040253;28;20038;-89
2024/02/08 12:10:35;;;;;;;6.78;4.28;;;7.20;83.40;;;;;;5021623;28;20049;-86
2024/02/08 12:13:01;;;;;;;5.38;3.75;;;7.30;83.40;;;;;;5030563;28;20060;-85
2024/02/08 12:15:28;;;;;;;6.88;4.18;;;7.30;83.40;;;;;;5016900;28;20033;-85
2024/02/08 12:18:08;;;;;;;5.97;4.20;;;7.30;83.40;;;;;;5016413;28;20067;-87
2024/02/08 12:20:36;;;;;;;5.90;4.25;;;7.30;83.50;;;;;;4999536;28;20037;-79
2024/02/08 12:23:02;;;;;;;6.55;4.13;;;7.30;83.40;;;;;;5016261;28;20045;-85
2024/02/08 12:25:30;;;;;;;5.82;3.78;;;7.30;83.40;;;;;;5031845;28;20017;-91
2024/02/08 12:28:01;;;;;;;7.65;4.05;;;7.30;83.40;;;;;;5014816;28;20099;-86
2024/02/08 12:30:32;;;;;;;6.18;3.97;;;7.40;83.40;;;;;;5033860;28;20033;-85
2024/02/08 12:32:59;;;;;;;6.85;4.25;;;7.40;83.40;;;;;;5017473;28;20029;-85
2024/02/08 12:35:28;;;;;;;6.93;4.50;;;7.40;83.40;;;;;;5034634;28;20025;-87
2024/02/08 12:37:58;;;;;;;6.13;4.18;;;7.40;83.40;;;;;;5016324;28;20100;-88
2024/02/08 12:40:32;;;;;;;5.85;3.97;;;7.40;83.40;;;;;;5050124;28;20034;-79
2024/02/08 12:42:59;;;;;;;5.77;3.80;;;7.40;83.40;;;;;;5032928;28;20017;-88
2024/02/08 12:45:28;;;;;;;5.90;3.90;;;7.40;83.40;;;;;;5020037;28;20022;-85
2024/02/08 12:47:57;;;;;;;6.57;3.95;;;7.40;83.40;;;;;;5033382;28;20485;-78
2024/02/08 12:50:25;;;;;;;5.95;3.83;;;7.40;83.40;;;;;;5031596;28;20026;-79
2024/02/08 12:52:55;;;;;;;6.13;4.25;;;7.50;83.40;;;;;;5032778;28;20033;-86
2024/02/08 12:55:23;;;;;;;7.63;4.22;;;7.50;83.40;;;;;;5049193;28;20021;-91
2024/02/08 12:57:57;;;;;;;6.95;4.90;;;7.40;83.30;;;;;;5013581;28;20021;-92
2024/02/08 13:00:24;;;;;;;6.75;4.13;;;7.50;83.40;;;;;;5032265;28;20036;-78
2024/02/08 13:02:54;;;;;;;6.95;4.63;;;7.50;83.40;;;;;;5015407;28;20067;-85
2024/02/08 13:05:29;;;;;;;8.45;4.03;;;7.50;83.40;;;;;;5013575;28;20022;-87
2024/02/08 13:08:01;;;;;;;5.95;4.20;;;7.50;83.40;;;;;;5029978;28;20026;-79
2024/02/08 13:10:31;;;;;;;5.90;4.30;;;7.50;83.40;;;;;;5034187;28;20044;-86
2024/02/08 13:13:01;;;;;;;7.18;4.13;;;7.50;83.40;;;;;;5030809;28;20030;-79
2024/02/08 13:15:34;;;;;;;7.22;4.15;;;7.50;83.40;;;;;;5033416;28;20397;-85
2024/02/08 13:18:09;;;;;;;9.40;4.53;;;7.50;83.40;;;;;;5016315;28;20029;-79
2024/02/08 13:20:36;;;;;;;6.20;4.00;;;7.50;83.40;;;;;;5028055;28;20030;-85
2024/02/08 13:23:04;;;;;;;6.40;4.13;;;7.60;83.40;;;;;;5049055;28;20547;-84
2024/02/08 13:25:30;;;;;;;5.65;3.85;;;7.50;83.30;;;;;;5028124;28;20033;-87
2024/02/08 13:28:00;;;;;;;7.05;4.45;;;7.60;83.40;;;;;;5032415;28;20040;-91
2024/02/08 13:30:29;;;;;;;6.07;4.05;;;7.50;83.40;;;;;;5016030;28;20042;-85
2024/02/08 13:32:57;;;;;;;5.68;4.00;;;7.60;83.40;;;;;;5049677;28;20059;-88
2024/02/08 13:35:39;;;;;;;6.15;3.83;;;7.60;83.40;;;;;;5032293;28;20021;-91
2024/02/08 13:38:10;;;;;;;5.38;3.78;;;7.60;83.40;;;;;;5022011;28;20157;-92
2024/02/08 13:40:42;;;;;;;5.63;3.70;;;7.60;83.40;;;;;;5017735;28;20095;-85
2024/02/08 13:43:10;;;;;;;5.75;3.88;;;7.60;83.40;;;;;;5032484;28;20105;-79
2024/02/08 13:45:38;;;;;;;6.30;4.15;;;7.60;83.40;;;;;;5016136;28;20033;-81
2024/02/08 13:48:07;;;;;;;5.22;3.90;;;7.60;83.40;;;;;;5027056;28;20349;-90
2024/02/08 13:50:33;;;;;;;6.78;4.10;;;7.60;83.40;;;;;;5032755;28;20033;-92
2024/02/08 13:53:01;;;;;;;5.68;3.90;;;7.60;83.40;;;;;;5014741;28;20037;-79
2024/02/08 13:55:31;;;;;;;4.82;3.30;;;7.60;83.40;;;;;;5013094;28;20120;-92
2024/02/08 13:58:00;;;;;;;5.43;3.72;;;7.60;83.40;;;;;;5013492;28;20030;-86
2024/02/08 14:00:27;;;;;;;5.90;3.50;;;7.60;83.40;;;;;;5015597;28;20078;-88
2024/02/08 14:02:53;;;;;;;4.97;3.20;;;7.60;83.40;;;;;;5015398;28;20025;-86
2024/02/08 14:05:23;;;;;;;4.65;3.20;;;7.60;83.40;;;;;;5025427;28;20373;-86
2024/02/08 14:07:52;;;;;;;3.92;3.08;;;7.60;83.40;;;;;;5033102;28;20033;-85
2024/02/08 14:10:27;;;;;;;5.45;3.38;;;7.60;83.40;;;;;;5012181;28;20013;-92
2024/02/08 14:12:59;;;;;;;4.93;3.00;;;7.60;83.40;;;;;;5048181;28;20566;-78
2024/02/08 14:15:29;;;;;;;4.97;3.08;;;7.60;83.40;;;;;;5014089;28;20044;-91
2024/02/08 14:18:11;;;;;;;4.30;2.97;;;7.60;83.30;;;;;;5044454;28;20571;-85
2024/02/08 14:20:52;;;;;;;4.03;2.88;;;7.60;83.40;;;;;;5031819;28;20030;-80
2024/02/08 14:23:29;;;;;;;4.45;3.03;;;7.60;83.40;;;;;;5009275;28;20080;-86
2024/02/08 14:28:32;;;;;;;4.15;2.55;;;7.60;83.40;;;;;;5031242;28;20032;-87
2024/02/08 14:31:00;;;;;;;4.18;2.55;;;7.60;83.40;;;;;;5030716;28;20017;-79
2024/02/08 14:33:35;;;;;;;4.13;2.70;;;7.60;83.40;;;;;;5014705;28;20076;-91
2024/02/08 14:36:06;;;;;;;3.75;2.85;;;7.60;83.40;;;;;;5015443;28;20031;-85
2024/02/08 14:38:36;;;;;;;4.60;2.83;;;7.60;83.40;;;;;;5028745;28;20496;-85
2024/02/08 14:41:33;;;;;;;3.78;2.60;;;7.60;83.40;;;;;;5014573;28;20021;-93
2024/02/08 14:44:07;;;;;;;2.78;2.20;;;7.60;83.40;;;;;;5016656;28;20105;-79
2024/02/08 14:46:34;;;;;;;2.60;2.33;;;7.60;83.40;;;;;;5014788;28;20538;-91
2024/02/08 14:49:16;;;;;;;4.50;2.55;;;7.60;83.40;;;;;;5029936;28;20298;-91
2024/02/08 14:51:47;;;;;;;3.00;2.40;;;7.60;83.50;;;;;;5029304;28;20065;-79
2024/02/08 14:54:14;;;;;;;3.33;2.10;;;7.60;83.40;;;;;;5023393;28;20029;-79
2024/02/08 14:56:43;;;;;;;4.05;2.20;;;7.60;83.40;;;;;;5006120;28;20034;-85
2024/02/08 14:59:09;;;;;;;3.22;2.33;;;7.60;83.30;;;;;;5028614;28;20029;-87
2024/02/08 15:01:39;;;;;;;3.22;2.25;;;7.60;83.40;;;;;;5014052;28;20047;-91
2024/02/08 15:04:21;;;;;;;2.50;2.13;;;7.60;83.40;;;;;;5028146;28;20093;-91
2024/02/08 15:12:27;;;;;;;3.20;2.33;;;7.60;83.30;;;;;;5025661;28;20131;-78
2024/02/08 15:14:55;;;;;;;3.17;2.38;;;7.60;83.40;;;;;;5022362;28;20068;-78
2024/02/08 15:17:29;;;;;;;2.58;2.10;;;7.50;83.30;;;;;;5025601;28;20173;-78
2024/02/08 15:20:36;;;;;;;3.13;2.38;;;7.50;83.40;;;;;;5011764;28;20110;-92
2024/02/08 15:22:47;;;;;;;2.72;2.10;;;7.50;83.30;;;;;;5026618;28;20038;-79
2024/02/08 15:25:16;;;;;;;2.13;1.92;;;7.50;83.30;;;;;;5012451;28;20119;-79
2024/02/08 15:30:18;;;;;;;2.72;2.30;;;7.50;83.40;;;;;;5030008;28;20425;-88
2024/02/08 15:32:55;;;;;;;3.38;2.40;;;7.50;83.40;;;;;;5031993;28;20203;-79
2024/02/08 15:35:26;;;;;;;3.05;2.20;;;7.50;83.40;;;;;;5030019;28;20079;-78
2024/02/08 15:40:45;;;;;;;1.88;1.73;;;7.40;83.40;;;;;;5035220;28;20406;-85
2024/02/08 15:43:15;;;;;;;3.78;2.33;;;7.50;83.40;;;;;;5013723;28;20033;-79
2024/02/08 15:45:52;;;;;;;3.85;2.38;;;7.50;83.40;;;;;;5013500;28;20088;-84
2024/02/08 15:48:33;;;;;;;2.35;2.03;;;7.40;83.40;;;;;;5023161;28;20426;-87
2024/02/08 15:51:09;;;;;;;3.00;2.38;;;7.40;83.40;;;;;;5023182;28;20406;-93
2024/02/08 15:53:48;;;;;;;4.38;2.45;;;7.40;83.40;;;;;;5021002;28;20116;-78